createdAt,value
2023-05-06T00:01:42.403Z,99.90
2023-05-06T00:04:09.664Z,99.90
2023-05-06T00:06:37.418Z,99.90
2023-05-06T00:09:04.975Z,99.90
2023-05-06T00:11:32.233Z,99.90
2023-05-06T00:13:59.852Z,99.90
2023-05-06T00:16:27.310Z,99.90
2023-05-06T00:18:54.598Z,99.90
2023-05-06T00:21:21.962Z,99.90
2023-05-06T00:23:49.210Z,99.90
2023-05-06T00:26:16.574Z,99.90
2023-05-06T00:28:43.680Z,99.90
2023-05-06T00:31:11.164Z,99.90
2023-05-06T00:33:38.574Z,99.90
2023-05-06T00:36:06.586Z,99.90
2023-05-06T00:38:33.882Z,99.90
2023-05-06T00:41:01.411Z,99.90
2023-05-06T00:43:28.970Z,99.90
2023-05-06T00:46:00.393Z,99.90
2023-05-06T00:48:28.156Z,99.90
2023-05-06T00:50:55.951Z,99.90
2023-05-06T00:53:23.871Z,99.90
2023-05-06T00:55:51.367Z,99.90
2023-05-06T00:58:20.434Z,99.90
2023-05-06T01:00:48.432Z,99.90
2023-05-06T01:03:16.015Z,99.90
2023-05-06T01:06:15.413Z,99.90
2023-05-06T01:08:54.885Z,99.90
2023-05-06T01:11:34.393Z,99.90
2023-05-06T01:14:28.150Z,99.90
2023-05-06T01:17:00.287Z,99.90
2023-05-06T01:19:46.699Z,99.90
2023-05-06T01:22:16.446Z,99.90
2023-05-06T01:24:44.963Z,99.90
2023-05-06T01:27:14.091Z,99.90
2023-05-06T01:29:44.214Z,99.90
2023-05-06T01:32:17.219Z,99.90
2023-05-06T01:35:14.348Z,99.90
2023-05-06T01:37:56.196Z,99.90
2023-05-06T01:40:27.328Z,99.90
2023-05-06T01:42:55.626Z,99.90
2023-05-06T01:45:27.855Z,99.90
2023-05-06T01:47:56.815Z,99.90
2023-05-06T01:50:24.292Z,99.90
2023-05-06T01:52:59.542Z,99.90
2023-05-06T01:55:27.117Z,99.90
2023-05-06T01:57:58.113Z,99.90
2023-05-06T02:00:26.955Z,99.90
2023-05-06T02:02:54.508Z,99.90
2023-05-06T02:05:21.993Z,99.90
2023-05-06T02:07:53.850Z,99.90
2023-05-06T02:10:21.599Z,99.90
2023-05-06T02:12:56.029Z,99.90
2023-05-06T02:15:24.821Z,99.90
2023-05-06T02:17:52.947Z,99.90
2023-05-06T02:20:20.449Z,99.90
2023-05-06T02:22:47.894Z,99.90
2023-05-06T02:25:15.402Z,99.90
2023-05-06T02:27:42.736Z,99.90
2023-05-06T02:30:10.668Z,99.90
2023-05-06T02:32:38.081Z,99.90
2023-05-06T02:35:07.194Z,99.90
2023-05-06T02:37:34.510Z,99.90
2023-05-06T02:40:02.298Z,99.90
2023-05-06T02:47:24.844Z,99.90
2023-05-06T02:49:52.304Z,99.90
2023-05-06T02:52:19.488Z,99.90
2023-05-06T02:54:46.635Z,99.90
2023-05-06T02:57:13.842Z,99.90
2023-05-06T02:59:41.038Z,99.90
2023-05-06T03:02:08.327Z,99.90
2023-05-06T03:04:35.584Z,99.90
2023-05-06T03:07:02.881Z,99.90
2023-05-06T03:09:30.093Z,99.90
2023-05-06T03:11:58.261Z,99.90
2023-05-06T03:14:26.352Z,99.90
2023-05-06T03:16:54.657Z,99.90
2023-05-06T03:19:23.477Z,99.90
2023-05-06T03:21:56.572Z,99.90
2023-05-06T03:24:24.353Z,99.90
2023-05-06T03:26:51.792Z,99.90
2023-05-06T03:29:19.104Z,99.90
2023-05-06T03:31:51.283Z,99.90
2023-05-06T03:34:20.770Z,99.90
2023-05-06T03:36:47.997Z,99.90
2023-05-06T03:39:15.854Z,99.90
2023-05-06T03:41:43.421Z,99.90
2023-05-06T03:44:11.122Z,99.90
2023-05-06T03:46:40.220Z,99.90
2023-05-06T03:49:08.339Z,99.90
2023-05-06T03:51:35.738Z,99.90
2023-05-06T03:54:03.858Z,99.90
2023-05-06T03:56:34.305Z,99.90
2023-05-06T03:59:01.645Z,99.90
2023-05-06T04:01:29.836Z,99.90
2023-05-06T04:03:57.414Z,99.90
2023-05-06T04:06:26.897Z,99.90
2023-05-06T04:08:54.224Z,99.90
2023-05-06T04:11:21.735Z,99.90
2023-05-06T04:13:49.703Z,99.90
2023-05-06T04:16:20.292Z,99.90
2023-05-06T04:18:49.439Z,99.90
2023-05-06T04:21:18.445Z,99.90
2023-05-06T04:23:52.492Z,99.90
2023-05-06T04:26:25.200Z,99.90
2023-05-06T04:28:52.543Z,99.90
2023-05-06T04:31:20.413Z,99.90
2023-05-06T04:33:50.770Z,99.90
2023-05-06T04:36:22.029Z,99.90
2023-05-06T04:39:10.610Z,99.90
2023-05-06T04:41:39.173Z,99.90
2023-05-06T04:44:08.263Z,99.90
2023-05-06T04:46:37.081Z,99.90
2023-05-06T04:49:04.492Z,99.90
2023-05-06T04:51:32.030Z,99.90
2023-05-06T04:54:00.422Z,99.90
2023-05-06T04:56:27.792Z,99.90
2023-05-06T04:58:55.977Z,99.90
2023-05-06T05:01:25.142Z,99.90
2023-05-06T05:03:52.626Z,99.90
2023-05-06T05:06:21.650Z,99.90
2023-05-06T05:08:49.171Z,99.90
2023-05-06T05:11:16.702Z,99.90
2023-05-06T05:13:44.234Z,99.90
2023-05-06T05:16:11.580Z,99.90
2023-05-06T05:18:42.511Z,99.90
2023-05-06T05:21:16.846Z,99.90
2023-05-06T05:23:44.402Z,99.90
2023-05-06T05:26:11.808Z,99.90
2023-05-06T05:28:40.466Z,99.90
2023-05-06T05:31:10.183Z,99.90
2023-05-06T05:33:37.914Z,99.90
2023-05-06T05:36:08.918Z,99.90
2023-05-06T05:38:37.561Z,99.90
2023-05-06T05:41:04.995Z,99.90
2023-05-06T05:43:32.618Z,99.90
2023-05-06T05:46:01.480Z,99.90
2023-05-06T05:48:32.791Z,99.90
2023-05-06T05:51:02.476Z,99.90
2023-05-06T05:53:30.175Z,99.90
2023-05-06T05:55:57.718Z,99.90
2023-05-06T05:58:25.636Z,99.90
2023-05-06T06:00:56.398Z,99.90
2023-05-06T06:03:23.825Z,99.90
2023-05-06T06:05:53.249Z,99.90
2023-05-06T06:08:21.016Z,99.90
2023-05-06T06:10:51.407Z,99.90
2023-05-06T06:13:22.314Z,99.90
2023-05-06T06:15:49.789Z,99.90
2023-05-06T06:18:17.041Z,99.90
2023-05-06T06:20:44.329Z,99.90
2023-05-06T06:23:11.628Z,99.90
2023-05-06T06:25:39.085Z,99.90
2023-05-06T06:28:06.407Z,99.90
2023-05-06T06:30:33.902Z,99.90
2023-05-06T06:33:02.171Z,99.90
2023-05-06T06:35:29.808Z,99.90
2023-05-06T06:37:57.155Z,99.90
2023-05-06T06:40:24.403Z,99.90
2023-05-06T06:42:51.743Z,99.90
2023-05-06T06:45:48.514Z,99.90
2023-05-06T06:48:16.621Z,99.90
2023-05-06T06:50:44.171Z,99.90
2023-05-06T06:53:11.411Z,99.90
2023-05-06T06:55:38.596Z,99.90
2023-05-06T06:58:05.710Z,99.90
2023-05-06T07:00:32.984Z,99.90
2023-05-06T07:03:00.450Z,99.90
2023-05-06T07:05:27.685Z,99.90
2023-05-06T07:07:55.637Z,99.90
2023-05-06T07:10:23.331Z,99.90
2023-05-06T07:12:50.582Z,99.90
2023-05-06T07:15:17.869Z,99.90
2023-05-06T07:17:45.248Z,99.90
2023-05-06T07:20:13.016Z,99.90
2023-05-06T07:22:41.412Z,99.90
2023-05-06T07:25:09.333Z,99.90
2023-05-06T07:27:36.813Z,99.90
2023-05-06T07:30:04.958Z,99.90
2023-05-06T07:32:32.974Z,99.90
2023-05-06T07:35:00.212Z,99.90
2023-05-06T07:37:27.655Z,99.90
2023-05-06T07:39:55.029Z,99.90
2023-05-06T07:42:22.447Z,99.90
2023-05-06T07:44:49.871Z,99.90
2023-05-06T07:47:28.232Z,99.90
2023-05-06T07:49:56.182Z,99.90
2023-05-06T07:52:24.194Z,99.90
2023-05-06T07:54:51.514Z,99.90
2023-05-06T07:57:18.707Z,99.90
2023-05-06T07:59:51.199Z,99.90
2023-05-06T08:02:20.930Z,99.90
2023-05-06T08:04:50.917Z,99.90
2023-05-06T08:07:19.603Z,99.90
2023-05-06T08:09:46.821Z,99.90
2023-05-06T08:12:15.891Z,99.90
2023-05-06T08:14:43.045Z,99.90
2023-05-06T08:17:10.312Z,99.90
2023-05-06T08:19:37.514Z,99.90
2023-05-06T08:22:04.701Z,99.90
2023-05-06T08:24:32.103Z,99.90
2023-05-06T08:26:59.494Z,99.90
2023-05-06T08:29:26.753Z,99.90
2023-05-06T08:31:54.028Z,99.90
2023-05-06T08:34:21.433Z,99.90
2023-05-06T08:36:49.301Z,99.90
2023-05-06T08:39:16.612Z,99.90
2023-05-06T08:41:48.691Z,99.40
2023-05-06T08:44:26.049Z,99.50
2023-05-06T08:46:53.564Z,99.20
2023-05-06T08:49:21.149Z,98.90
2023-05-06T08:51:52.462Z,96.60
2023-05-06T08:54:20.085Z,96.60
2023-05-06T08:56:53.294Z,96.40
2023-05-06T08:59:25.068Z,96.10
2023-05-06T09:01:53.413Z,95.90
2023-05-06T09:04:20.896Z,95.90
2023-05-06T09:06:48.085Z,95.50
2023-05-06T09:09:15.629Z,96.10
2023-05-06T09:11:43.013Z,94.70
2023-05-06T09:14:12.017Z,95.20
2023-05-06T09:16:42.047Z,95.60
2023-05-06T09:19:09.603Z,94.60
2023-05-06T09:21:38.976Z,94.90
2023-05-06T09:24:08.099Z,95.20
2023-05-06T09:26:36.804Z,95.30
2023-05-06T09:29:05.028Z,95.60
2023-05-06T09:31:32.790Z,94.40
2023-05-06T09:34:01.024Z,94.20
2023-05-06T09:36:32.675Z,94.00
2023-05-06T09:39:00.943Z,93.70
2023-05-06T09:41:28.830Z,94.00
2023-05-06T09:43:57.036Z,93.40
2023-05-06T09:46:26.213Z,93.70
2023-05-06T09:48:56.014Z,93.20
2023-05-06T09:51:23.912Z,93.30
2023-05-06T09:53:52.602Z,93.10
2023-05-06T09:56:21.456Z,93.60
2023-05-06T09:58:50.077Z,93.20
2023-05-06T10:01:32.642Z,92.90
2023-05-06T10:04:13.804Z,92.90
2023-05-06T10:06:41.572Z,92.50
2023-05-06T10:09:10.464Z,93.30
2023-05-06T10:11:38.696Z,93.70
2023-05-06T10:14:07.843Z,92.60
2023-05-06T10:16:36.618Z,91.90
2023-05-06T10:19:06.733Z,91.80
2023-05-06T10:21:38.182Z,91.50
2023-05-06T10:24:15.038Z,90.50
2023-05-06T10:26:44.955Z,90.00
2023-05-06T10:29:13.507Z,90.40
2023-05-06T10:31:55.206Z,90.10
2023-05-06T10:34:24.268Z,88.60
2023-05-06T10:36:57.578Z,89.50
2023-05-06T10:39:26.175Z,90.00
2023-05-06T10:41:53.601Z,89.60
2023-05-06T10:44:56.920Z,89.80
2023-05-06T10:47:24.712Z,90.50
2023-05-06T10:50:21.384Z,90.80
2023-05-06T10:52:52.207Z,90.60
2023-05-06T10:55:39.605Z,90.60
2023-05-06T10:58:15.556Z,89.80
2023-05-06T11:00:58.883Z,89.60
2023-05-06T11:03:26.389Z,90.00
2023-05-06T11:05:53.830Z,87.90
2023-05-06T11:08:23.783Z,88.60
2023-05-06T11:10:52.442Z,89.50
2023-05-06T11:13:22.836Z,87.60
2023-05-06T11:15:52.069Z,87.10
2023-05-06T11:18:25.379Z,88.10
2023-05-06T11:21:03.058Z,85.40
2023-05-06T11:23:52.407Z,85.60
2023-05-06T11:26:19.821Z,83.40
2023-05-06T11:28:49.527Z,83.90
2023-05-06T11:31:17.441Z,81.90
2023-05-06T11:33:47.133Z,83.60
2023-05-06T11:36:19.079Z,84.70
2023-05-06T11:38:47.378Z,86.30
2023-05-06T11:41:16.324Z,85.70
2023-05-06T11:43:49.934Z,84.80
2023-05-06T11:46:22.238Z,85.20
2023-05-06T11:48:50.721Z,82.90
2023-05-06T11:51:24.655Z,84.00
2023-05-06T11:53:54.348Z,83.20
2023-05-06T11:56:21.602Z,81.00
2023-05-06T11:58:48.767Z,78.90
2023-05-06T12:01:15.978Z,79.90
2023-05-06T12:03:43.261Z,80.80
2023-05-06T12:06:11.141Z,80.80
2023-05-06T12:08:39.038Z,80.90
2023-05-06T12:11:08.329Z,81.20
2023-05-06T12:13:36.951Z,78.20
2023-05-06T12:16:07.940Z,79.70
2023-05-06T12:18:35.768Z,78.90
2023-05-06T12:21:03.280Z,79.20
2023-05-06T12:23:30.727Z,78.30
2023-05-06T12:26:04.415Z,77.70
2023-05-06T12:28:33.497Z,77.80
2023-05-06T12:31:17.508Z,76.00
2023-05-06T12:33:46.462Z,73.60
2023-05-06T12:36:13.874Z,75.00
2023-05-06T12:38:51.161Z,71.40
2023-05-06T12:41:19.764Z,70.10
2023-05-06T12:43:47.516Z,70.50
2023-05-06T12:46:16.844Z,69.20
2023-05-06T12:49:00.913Z,67.50
2023-05-06T12:51:30.866Z,67.10
2023-05-06T12:53:58.446Z,67.90
2023-05-06T12:56:25.785Z,64.80
2023-05-06T12:59:00.526Z,63.90
2023-05-06T13:01:27.974Z,64.60
2023-05-06T13:03:58.479Z,60.00
2023-05-06T13:06:34.780Z,59.00
2023-05-06T13:09:03.062Z,55.10
2023-05-06T13:11:31.196Z,49.30
2023-05-06T13:13:58.345Z,48.40
2023-05-06T13:16:25.920Z,44.40
2023-05-06T13:18:53.199Z,42.10
2023-05-06T13:21:20.497Z,39.80
2023-05-06T13:23:48.105Z,40.70
2023-05-06T13:26:15.978Z,39.00
2023-05-06T13:28:57.264Z,37.00
2023-05-06T13:31:26.108Z,36.80
2023-05-06T13:33:53.305Z,36.90
2023-05-06T13:36:20.489Z,36.20
2023-05-06T13:38:47.738Z,37.20
2023-05-06T13:41:15.132Z,37.00
2023-05-06T13:43:42.729Z,37.50
2023-05-06T13:46:10.202Z,38.50
2023-05-06T13:48:37.513Z,40.00
2023-05-06T13:51:06.263Z,40.40
2023-05-06T13:53:35.263Z,39.60
2023-05-06T13:56:02.548Z,39.90
2023-05-06T13:58:29.755Z,39.10
2023-05-06T14:00:57.298Z,39.60
2023-05-06T14:03:24.514Z,41.30
2023-05-06T14:05:51.803Z,41.50
2023-05-06T14:08:19.002Z,42.20
2023-05-06T14:10:46.513Z,43.00
2023-05-06T14:13:13.756Z,42.50
2023-05-06T14:15:41.148Z,43.80
2023-05-06T14:18:08.599Z,43.90
2023-05-06T14:20:36.208Z,44.10
2023-05-06T14:23:07.037Z,43.50
2023-05-06T14:25:34.633Z,44.00
2023-05-06T14:28:01.949Z,44.00
2023-05-06T14:30:30.077Z,44.10
2023-05-06T14:32:57.378Z,43.80
2023-05-06T14:35:24.854Z,43.50
2023-05-06T14:37:52.859Z,43.60
2023-05-06T14:40:20.052Z,44.20
2023-05-06T14:42:49.756Z,44.40
2023-05-06T14:45:17.174Z,44.10
2023-05-06T14:47:44.668Z,44.60
2023-05-06T14:50:12.961Z,45.20
2023-05-06T14:52:41.390Z,45.00
2023-05-06T14:55:10.871Z,45.70
2023-05-06T14:57:38.731Z,45.30
2023-05-06T15:00:10.319Z,46.00
2023-05-06T15:02:38.513Z,46.60
2023-05-06T15:05:09.993Z,45.80
2023-05-06T15:07:37.580Z,45.50
2023-05-06T15:10:05.585Z,45.10
2023-05-06T15:12:39.189Z,45.60
2023-05-06T15:15:07.290Z,46.20
2023-05-06T15:17:35.320Z,46.20
2023-05-06T15:20:02.850Z,46.40
2023-05-06T15:22:39.490Z,45.80
2023-05-06T15:25:09.464Z,45.60
2023-05-06T15:27:39.600Z,45.90
2023-05-06T15:30:07.552Z,46.40
2023-05-06T15:32:34.948Z,45.90
2023-05-06T15:35:05.098Z,45.80
2023-05-06T15:37:34.386Z,45.50
2023-05-06T15:40:02.372Z,43.70
2023-05-06T15:42:33.125Z,41.90
2023-05-06T15:45:00.460Z,40.60
2023-05-06T15:47:27.766Z,39.80
2023-05-06T15:49:55.360Z,39.70
2023-05-06T15:52:23.442Z,39.60
2023-05-06T15:54:51.628Z,40.20
2023-05-06T15:57:19.668Z,41.50
2023-05-06T15:59:49.290Z,42.30
2023-05-06T16:04:47.048Z,44.10
2023-05-06T16:07:14.572Z,44.70
2023-05-06T16:09:42.876Z,45.00
2023-05-06T16:12:10.174Z,45.30
2023-05-06T16:14:37.483Z,45.80
2023-05-06T16:17:04.871Z,45.80
2023-05-06T16:19:34.840Z,45.70
2023-05-06T16:22:02.963Z,45.50
2023-05-06T16:24:30.270Z,45.50
2023-05-06T16:26:57.726Z,45.60
2023-05-06T16:29:25.051Z,46.40
2023-05-06T16:31:52.324Z,46.40
2023-05-06T16:34:19.670Z,46.60
2023-05-06T16:36:46.961Z,46.40
2023-05-06T16:39:14.321Z,46.40
2023-05-06T16:41:41.498Z,46.30
2023-05-06T16:44:08.766Z,46.60
2023-05-06T16:46:35.994Z,47.00
2023-05-06T16:49:04.632Z,47.40
2023-05-06T16:51:32.280Z,47.00
2023-05-06T16:53:59.561Z,47.40
2023-05-06T16:56:32.967Z,47.70
2023-05-06T16:59:07.528Z,48.20
2023-05-06T17:01:34.650Z,48.30
2023-05-06T17:04:01.851Z,48.90
2023-05-06T17:06:31.337Z,49.30
2023-05-06T17:08:59.249Z,49.70
2023-05-06T17:11:26.522Z,49.80
2023-05-06T17:13:56.855Z,50.20
2023-05-06T17:16:24.324Z,50.70
2023-05-06T17:18:51.660Z,50.80
2023-05-06T17:21:20.671Z,50.80
2023-05-06T17:23:50.720Z,51.00
2023-05-06T17:26:18.512Z,50.80
2023-05-06T17:28:47.075Z,51.50
2023-05-06T17:31:15.743Z,51.70
2023-05-06T17:33:44.084Z,52.20
2023-05-06T17:36:20.600Z,52.30
2023-05-06T17:38:48.262Z,52.50
2023-05-06T17:41:15.941Z,52.80
2023-05-06T17:43:43.420Z,52.90
2023-05-06T17:46:10.709Z,53.10
2023-05-06T17:48:38.160Z,53.30
2023-05-06T17:51:05.303Z,53.30
2023-05-06T17:53:34.143Z,53.40
2023-05-06T17:56:01.450Z,53.90
2023-05-06T17:58:28.892Z,53.90
2023-05-06T18:00:56.357Z,54.00
2023-05-06T18:03:24.207Z,54.30
2023-05-06T18:05:51.867Z,54.60
2023-05-06T18:08:19.122Z,54.90
2023-05-06T18:10:46.533Z,55.00
2023-05-06T18:13:13.962Z,55.00
2023-05-06T18:15:41.277Z,55.70
2023-05-06T18:18:08.671Z,55.20
2023-05-06T18:20:36.137Z,55.30
2023-05-06T18:23:03.393Z,55.30
2023-05-06T18:25:30.674Z,55.40
2023-05-06T18:27:58.206Z,56.10
2023-05-06T18:30:25.679Z,55.40
2023-05-06T18:32:55.236Z,55.90
2023-05-06T18:35:24.099Z,56.00
2023-05-06T18:37:51.415Z,56.10
2023-05-06T18:40:20.022Z,56.10
2023-05-06T18:42:47.770Z,56.40
2023-05-06T18:45:15.312Z,56.70
2023-05-06T18:47:42.989Z,56.80
2023-05-06T18:50:10.677Z,56.90
2023-05-06T18:52:38.008Z,57.00
2023-05-06T18:55:05.857Z,57.20
2023-05-06T18:57:33.409Z,57.10
2023-05-06T19:00:00.994Z,57.00
2023-05-06T19:02:28.654Z,57.20
2023-05-06T19:04:56.710Z,57.50
2023-05-06T19:07:24.066Z,57.10
2023-05-06T19:09:51.393Z,57.70
2023-05-06T19:12:20.846Z,57.40
2023-05-06T19:14:48.318Z,57.50
2023-05-06T19:17:18.354Z,57.50
2023-05-06T19:19:49.142Z,57.50
2023-05-06T19:22:16.997Z,57.40
2023-05-06T19:24:44.341Z,57.70
2023-05-06T19:27:11.801Z,58.00
2023-05-06T19:29:39.022Z,57.90
2023-05-06T19:32:06.438Z,58.10
2023-05-06T19:34:33.600Z,58.20
2023-05-06T19:37:01.023Z,58.60
2023-05-06T19:39:28.297Z,58.60
2023-05-06T19:41:55.757Z,58.90
2023-05-06T19:44:23.705Z,59.30
2023-05-06T19:46:56.446Z,59.30
2023-05-06T19:49:23.811Z,59.40
2023-05-06T19:51:51.103Z,59.20
2023-05-06T19:54:19.445Z,59.30
2023-05-06T19:56:47.054Z,59.00
2023-05-06T19:59:14.447Z,59.20
2023-05-06T20:01:41.821Z,59.20
2023-05-06T20:04:10.022Z,59.30
2023-05-06T20:06:37.386Z,58.90
2023-05-06T20:09:04.960Z,59.00
2023-05-06T20:11:32.286Z,59.00
2023-05-06T20:13:59.603Z,59.20
2023-05-06T20:16:26.885Z,58.90
2023-05-06T20:18:54.328Z,58.80
2023-05-06T20:21:21.495Z,59.00
2023-05-06T20:23:48.901Z,58.80
2023-05-06T20:26:16.104Z,59.00
2023-05-06T20:28:43.623Z,59.30
2023-05-06T20:31:11.046Z,59.00
2023-05-06T20:33:38.341Z,59.10
2023-05-06T20:36:05.808Z,59.30
2023-05-06T20:38:33.142Z,59.50
2023-05-06T20:41:02.876Z,59.60
2023-05-06T20:43:30.621Z,59.70
2023-05-06T20:45:58.190Z,59.70
2023-05-06T20:48:27.829Z,59.60
2023-05-06T20:50:57.222Z,59.80
2023-05-06T20:53:24.702Z,60.10
2023-05-06T20:55:52.274Z,60.00
2023-05-06T20:58:19.537Z,59.80
2023-05-06T21:00:47.026Z,59.80
2023-05-06T21:03:14.671Z,59.50
2023-05-06T21:05:42.060Z,59.70
2023-05-06T21:08:09.656Z,60.00
2023-05-06T21:10:37.302Z,60.00
2023-05-06T21:13:07.017Z,60.30
2023-05-06T21:15:34.618Z,60.50
2023-05-06T21:18:01.888Z,61.10
2023-05-06T21:20:29.213Z,61.70
2023-05-06T21:22:57.166Z,61.90
2023-05-06T21:25:24.835Z,62.10
2023-05-06T21:27:52.097Z,62.20
2023-05-06T21:30:19.426Z,62.30
2023-05-06T21:32:46.840Z,61.90
2023-05-06T21:35:15.564Z,62.30
2023-05-06T21:37:42.954Z,62.20
2023-05-06T21:40:10.846Z,62.50
2023-05-06T21:42:38.094Z,62.80
2023-05-06T21:45:06.346Z,62.80
2023-05-06T21:47:35.247Z,63.10
2023-05-06T21:50:02.619Z,63.30
2023-05-06T21:52:33.283Z,63.40
2023-05-06T21:55:00.740Z,63.30
2023-05-06T21:57:27.864Z,63.40
2023-05-06T21:59:55.532Z,63.50
2023-05-06T22:02:22.907Z,63.80
2023-05-06T22:04:50.882Z,64.00
2023-05-06T22:07:18.753Z,64.30
2023-05-06T22:09:46.057Z,64.40
2023-05-06T22:12:15.414Z,64.40
2023-05-06T22:14:42.664Z,64.60
2023-05-06T22:17:10.477Z,64.30
2023-05-06T22:19:38.602Z,64.60
2023-05-06T22:22:06.608Z,64.90
2023-05-06T22:24:34.429Z,65.30
2023-05-06T22:27:03.936Z,65.80
2023-05-06T22:29:31.217Z,65.70
2023-05-06T22:31:58.442Z,65.60
2023-05-06T22:34:25.760Z,66.10
2023-05-06T22:36:54.027Z,66.00
2023-05-06T22:39:22.403Z,65.90
2023-05-06T22:41:50.955Z,66.20
2023-05-06T22:44:18.588Z,66.40
2023-05-06T22:46:45.860Z,66.40
2023-05-06T22:49:13.923Z,66.80
2023-05-06T22:51:41.407Z,66.60
2023-05-06T22:54:08.619Z,66.70
2023-05-06T22:56:35.855Z,67.20
2023-05-06T22:59:03.328Z,67.20
2023-05-06T23:01:32.337Z,67.20
2023-05-06T23:04:00.228Z,67.30
2023-05-06T23:06:29.323Z,67.50
2023-05-06T23:08:57.199Z,68.00
2023-05-06T23:11:24.583Z,68.00
2023-05-06T23:13:51.828Z,68.30
2023-05-06T23:16:19.071Z,68.30
2023-05-06T23:18:46.280Z,68.40
2023-05-06T23:21:13.626Z,68.20
2023-05-06T23:23:41.078Z,68.20
2023-05-06T23:26:08.530Z,69.10
2023-05-06T23:28:39.016Z,68.60
2023-05-06T23:31:06.453Z,68.50
2023-05-06T23:33:33.787Z,68.50
2023-05-06T23:36:01.733Z,68.70
2023-05-06T23:38:29.241Z,68.60
2023-05-06T23:40:56.758Z,68.80
2023-05-06T23:43:24.071Z,69.20
2023-05-06T23:45:55.649Z,69.10
2023-05-06T23:48:25.262Z,69.10
2023-05-06T23:50:54.431Z,69.20
2023-05-06T23:53:21.909Z,69.20
2023-05-06T23:55:49.866Z,69.10
2023-05-06T23:58:17.083Z,69.30
